sensor_id;sensor_type;location;lat;lon;timestamp;pressure;altitude;pressure_sealevel;temperature;humidity
11648;BME280;5880;52.342;9.662;2023-03-13T00:00:31;99834.97;;;12.36;63.39
11648;BME280;5880;52.342;9.662;2023-03-13T00:02:57;99831.13;;;12.37;63.62
11648;BME280;5880;52.342;9.662;2023-03-13T00:05:22;99831.16;;;12.42;63.53
11648;BME280;5880;52.342;9.662;2023-03-13T00:07:48;99830.09;;;12.43;63.29
11648;BME280;5880;52.342;9.662;2023-03-13T00:10:14;99823.25;;;12.46;63.41
11648;BME280;5880;52.342;9.662;2023-03-13T00:12:39;99814.75;;;12.48;63.23
11648;BME280;5880;52.342;9.662;2023-03-13T00:15:05;99802.72;;;12.49;63.10
11648;BME280;5880;52.342;9.662;2023-03-13T00:17:31;99812.56;;;12.50;63.40
11648;BME280;5880;52.342;9.662;2023-03-13T00:19:57;99801.34;;;12.51;63.31
11648;BME280;5880;52.342;9.662;2023-03-13T00:22:23;99802.97;;;12.52;63.12
11648;BME280;5880;52.342;9.662;2023-03-13T00:24:49;99791.47;;;12.50;63.33
11648;BME280;5880;52.342;9.662;2023-03-13T00:27:14;99798.63;;;12.56;63.11
11648;BME280;5880;52.342;9.662;2023-03-13T00:29:40;99793.97;;;12.57;63.14
11648;BME280;5880;52.342;9.662;2023-03-13T00:32:06;99790.16;;;12.58;63.17
11648;BME280;5880;52.342;9.662;2023-03-13T00:34:32;99780.56;;;12.60;63.04
11648;BME280;5880;52.342;9.662;2023-03-13T00:36:57;99776.22;;;12.64;62.77
11648;BME280;5880;52.342;9.662;2023-03-13T00:39:23;99774.28;;;12.65;62.78
11648;BME280;5880;52.342;9.662;2023-03-13T00:41:49;99778.97;;;12.70;62.89
11648;BME280;5880;52.342;9.662;2023-03-13T00:44:15;99769.38;;;12.67;62.96
11648;BME280;5880;52.342;9.662;2023-03-13T00:46:40;99774.63;;;12.74;62.97
11648;BME280;5880;52.342;9.662;2023-03-13T00:49:06;99774.06;;;12.77;62.85
11648;BME280;5880;52.342;9.662;2023-03-13T00:51:32;99776.56;;;12.78;62.92
11648;BME280;5880;52.342;9.662;2023-03-13T00:53:59;99764.22;;;12.81;62.84
11648;BME280;5880;52.342;9.662;2023-03-13T00:56:26;99767.50;;;12.83;62.52
11648;BME280;5880;52.342;9.662;2023-03-13T00:58:52;99760.13;;;12.83;62.73
11648;BME280;5880;52.342;9.662;2023-03-13T01:01:24;99754.91;;;12.87;62.50
11648;BME280;5880;52.342;9.662;2023-03-13T01:03:58;99754.66;;;12.88;62.50
11648;BME280;5880;52.342;9.662;2023-03-13T01:06:28;99747.25;;;12.89;62.72
11648;BME280;5880;52.342;9.662;2023-03-13T01:08:54;99751.34;;;12.92;62.68
11648;BME280;5880;52.342;9.662;2023-03-13T01:11:27;99744.25;;;12.96;62.41
11648;BME280;5880;52.342;9.662;2023-03-13T01:14:00;99728.59;;;12.91;62.28
11648;BME280;5880;52.342;9.662;2023-03-13T01:16:29;99730.53;;;12.96;62.48
11648;BME280;5880;52.342;9.662;2023-03-13T01:19:01;99727.50;;;12.92;62.54
11648;BME280;5880;52.342;9.662;2023-03-13T01:21:27;99739.88;;;12.95;62.04
11648;BME280;5880;52.342;9.662;2023-03-13T01:23:53;99731.91;;;12.93;62.30
11648;BME280;5880;52.342;9.662;2023-03-13T01:26:21;99728.06;;;12.94;62.12
11648;BME280;5880;52.342;9.662;2023-03-13T01:28:47;99719.00;;;12.88;62.10
11648;BME280;5880;52.342;9.662;2023-03-13T01:31:23;99726.97;;;12.90;61.92
11648;BME280;5880;52.342;9.662;2023-03-13T01:33:54;99717.34;;;12.87;61.70
11648;BME280;5880;52.342;9.662;2023-03-13T01:36:21;99710.75;;;12.83;61.68
11648;BME280;5880;52.342;9.662;2023-03-13T01:38:49;99701.97;;;12.81;61.84
11648;BME280;5880;52.342;9.662;2023-03-13T01:41:16;99692.38;;;12.79;61.74
11648;BME280;5880;52.342;9.662;2023-03-13T01:43:44;99705.25;;;12.78;61.74
11648;BME280;5880;52.342;9.662;2023-03-13T01:46:28;99681.09;;;12.75;61.55
11648;BME280;5880;52.342;9.662;2023-03-13T01:49:24;99685.22;;;12.73;61.63
11648;BME280;5880;52.342;9.662;2023-03-13T01:52:09;99676.97;;;12.67;61.51
11648;BME280;5880;52.342;9.662;2023-03-13T01:54:50;99675.59;;;12.65;61.78
11648;BME280;5880;52.342;9.662;2023-03-13T01:57:26;99669.00;;;12.61;61.77
11648;BME280;5880;52.342;9.662;2023-03-13T02:00:03;99657.22;;;12.60;61.50
11648;BME280;5880;52.342;9.662;2023-03-13T02:02:30;99649.81;;;12.56;62.06
11648;BME280;5880;52.342;9.662;2023-03-13T02:05:00;99645.41;;;12.55;61.84
11648;BME280;5880;52.342;9.662;2023-03-13T02:07:44;99630.31;;;12.52;61.80
11648;BME280;5880;52.342;9.662;2023-03-13T02:10:14;99635.78;;;12.47;61.79
11648;BME280;5880;52.342;9.662;2023-03-13T02:12:40;99630.03;;;12.43;62.00
11648;BME280;5880;52.342;9.662;2023-03-13T02:15:14;99616.59;;;12.42;61.68
11648;BME280;5880;52.342;9.662;2023-03-13T02:17:42;99601.22;;;12.36;62.01
11648;BME280;5880;52.342;9.662;2023-03-13T02:20:11;99599.59;;;12.40;61.85
11648;BME280;5880;52.342;9.662;2023-03-13T02:22:57;99586.69;;;12.35;61.75
11648;BME280;5880;52.342;9.662;2023-03-13T02:25:50;99585.63;;;12.36;61.98
11648;BME280;5880;52.342;9.662;2023-03-13T02:30:55;99573.25;;;12.34;62.40
11648;BME280;5880;52.342;9.662;2023-03-13T02:33:27;99569.44;;;12.35;62.09
11648;BME280;5880;52.342;9.662;2023-03-13T02:35:53;99565.88;;;12.34;62.17
11648;BME280;5880;52.342;9.662;2023-03-13T02:38:24;99560.97;;;12.36;62.25
11648;BME280;5880;52.342;9.662;2023-03-13T02:40:52;99557.38;;;12.36;62.02
11648;BME280;5880;52.342;9.662;2023-03-13T02:43:29;99552.75;;;12.36;62.29
11648;BME280;5880;52.342;9.662;2023-03-13T02:46:18;99540.94;;;12.36;62.49
11648;BME280;5880;52.342;9.662;2023-03-13T02:48:51;99524.78;;;12.34;62.38
11648;BME280;5880;52.342;9.662;2023-03-13T02:51:41;99524.78;;;12.39;62.29
11648;BME280;5880;52.342;9.662;2023-03-13T02:54:18;99510.28;;;12.39;62.26
11648;BME280;5880;52.342;9.662;2023-03-13T02:56:51;99497.94;;;12.36;62.27
11648;BME280;5880;52.342;9.662;2023-03-13T02:59:18;99502.63;;;12.41;62.33
11648;BME280;5880;52.342;9.662;2023-03-13T03:01:44;99493.03;;;12.43;62.44
11648;BME280;5880;52.342;9.662;2023-03-13T03:04:10;99484.81;;;12.43;62.27
11648;BME280;5880;52.342;9.662;2023-03-13T03:06:35;99476.03;;;12.46;62.54
11648;BME280;5880;52.342;9.662;2023-03-13T03:09:02;99474.91;;;12.48;62.16
11648;BME280;5880;52.342;9.662;2023-03-13T03:11:27;99454.38;;;12.45;62.13
11648;BME280;5880;52.342;9.662;2023-03-13T03:13:53;99455.75;;;12.48;62.10
11648;BME280;5880;52.342;9.662;2023-03-13T03:16:19;99447.53;;;12.48;62.28
11648;BME280;5880;52.342;9.662;2023-03-13T03:18:45;99436.28;;;12.44;61.86
11648;BME280;5880;52.342;9.662;2023-03-13T03:21:12;99430.00;;;12.43;62.07
11648;BME280;5880;52.342;9.662;2023-03-13T03:23:38;99430.56;;;12.45;61.99
11648;BME280;5880;52.342;9.662;2023-03-13T03:26:05;99423.16;;;12.46;61.62
11648;BME280;5880;52.342;9.662;2023-03-13T03:28:31;99421.50;;;12.45;61.88
11648;BME280;5880;52.342;9.662;2023-03-13T03:31:02;99413.25;;;12.45;61.88
11648;BME280;5880;52.342;9.662;2023-03-13T03:33:28;99408.34;;;12.42;62.16
11648;BME280;5880;52.342;9.662;2023-03-13T03:36:04;99399.84;;;12.43;62.11
11648;BME280;5880;52.342;9.662;2023-03-13T03:38:30;99383.69;;;12.37;62.09
11648;BME280;5880;52.342;9.662;2023-03-13T03:40:55;99382.31;;;12.39;62.40
11648;BME280;5880;52.342;9.662;2023-03-13T03:43:21;99376.03;;;12.39;62.20
11648;BME280;5880;52.342;9.662;2023-03-13T03:45:47;99370.53;;;12.39;62.24
11648;BME280;5880;52.342;9.662;2023-03-13T03:48:12;99363.13;;;12.39;62.17
11648;BME280;5880;52.342;9.662;2023-03-13T03:50:38;99360.41;;;12.39;62.42
11648;BME280;5880;52.342;9.662;2023-03-13T03:53:04;99358.47;;;12.40;62.70
11648;BME280;5880;52.342;9.662;2023-03-13T03:55:29;99352.19;;;12.39;62.56
11648;BME280;5880;52.342;9.662;2023-03-13T03:57:55;99351.06;;;12.40;62.56
11648;BME280;5880;52.342;9.662;2023-03-13T04:00:21;99343.69;;;12.41;62.38
11648;BME280;5880;52.342;9.662;2023-03-13T04:02:46;99336.28;;;12.41;62.53
11648;BME280;5880;52.342;9.662;2023-03-13T04:05:12;99343.41;;;12.42;62.45
11648;BME280;5880;52.342;9.662;2023-03-13T04:07:38;99339.84;;;12.42;62.59
11648;BME280;5880;52.342;9.662;2023-03-13T04:10:04;99347.78;;;12.43;62.60
11648;BME280;5880;52.342;9.662;2023-03-13T04:12:30;99344.22;;;12.43;62.68
11648;BME280;5880;52.342;9.662;2023-03-13T04:14:56;99349.44;;;12.44;62.51
11648;BME280;5880;52.342;9.662;2023-03-13T04:17:21;99344.75;;;12.45;62.52
11648;BME280;5880;52.342;9.662;2023-03-13T04:19:47;99322.59;;;12.41;62.36
11648;BME280;5880;52.342;9.662;2023-03-13T04:22:12;99317.91;;;12.42;62.67
11648;BME280;5880;52.342;9.662;2023-03-13T04:24:38;99320.09;;;12.45;62.63
11648;BME280;5880;52.342;9.662;2023-03-13T04:27:04;99318.19;;;12.45;62.63
11648;BME280;5880;52.342;9.662;2023-03-13T04:29:32;99305.31;;;12.46;62.26
11648;BME280;5880;52.342;9.662;2023-03-13T04:31:57;99303.97;;;12.43;62.76
11648;BME280;5880;52.342;9.662;2023-03-13T04:34:23;99293.00;;;12.43;62.69
11648;BME280;5880;52.342;9.662;2023-03-13T04:36:49;99286.97;;;12.41;62.45
11648;BME280;5880;52.342;9.662;2023-03-13T04:39:15;99282.88;;;12.39;62.55
11648;BME280;5880;52.342;9.662;2023-03-13T04:41:40;99274.66;;;12.39;62.67
11648;BME280;5880;52.342;9.662;2023-03-13T04:44:06;99266.44;;;12.39;62.72
11648;BME280;5880;52.342;9.662;2023-03-13T04:46:31;99268.31;;;12.38;62.73
11648;BME280;5880;52.342;9.662;2023-03-13T04:48:57;99264.22;;;12.41;62.92
11648;BME280;5880;52.342;9.662;2023-03-13T04:51:23;99259.59;;;12.36;63.26
11648;BME280;5880;52.342;9.662;2023-03-13T04:53:49;99249.41;;;12.42;63.18
11648;BME280;5880;52.342;9.662;2023-03-13T04:56:23;99253.53;;;12.44;63.24
11648;BME280;5880;52.342;9.662;2023-03-13T04:58:49;99233.78;;;12.42;63.61
11648;BME280;5880;52.342;9.662;2023-03-13T05:01:15;99217.09;;;12.39;63.25
11648;BME280;5880;52.342;9.662;2023-03-13T05:03:41;99202.31;;;12.40;63.47
11648;BME280;5880;52.342;9.662;2023-03-13T05:06:06;99215.97;;;12.45;63.35
11648;BME280;5880;52.342;9.662;2023-03-13T05:08:32;99222.00;;;12.47;63.65
11648;BME280;5880;52.342;9.662;2023-03-13T05:10:58;99223.38;;;12.44;63.72
11648;BME280;5880;52.342;9.662;2023-03-13T05:13:23;99216.25;;;12.49;63.50
11648;BME280;5880;52.342;9.662;2023-03-13T05:15:49;99213.22;;;12.50;63.70
11648;BME280;5880;52.342;9.662;2023-03-13T05:18:15;99211.84;;;12.48;63.72
11648;BME280;5880;52.342;9.662;2023-03-13T05:20:40;99213.50;;;12.49;63.85
11648;BME280;5880;52.342;9.662;2023-03-13T05:23:06;99205.00;;;12.50;63.67
11648;BME280;5880;52.342;9.662;2023-03-13T05:25:32;99202.81;;;12.47;63.67
11648;BME280;5880;52.342;9.662;2023-03-13T05:27:57;99201.97;;;12.52;63.83
11648;BME280;5880;52.342;9.662;2023-03-13T05:30:23;99194.59;;;12.47;63.90
11648;BME280;5880;52.342;9.662;2023-03-13T05:32:48;99190.22;;;12.51;63.72
11648;BME280;5880;52.342;9.662;2023-03-13T05:35:14;99192.94;;;12.51;63.92
11648;BME280;5880;52.342;9.662;2023-03-13T05:37:40;99180.91;;;12.47;63.90
11648;BME280;5880;52.342;9.662;2023-03-13T05:40:06;99184.72;;;12.51;63.72
11648;BME280;5880;52.342;9.662;2023-03-13T05:42:32;99174.84;;;12.50;63.83
11648;BME280;5880;52.342;9.662;2023-03-13T05:44:57;99171.06;;;12.46;64.05
11648;BME280;5880;52.342;9.662;2023-03-13T05:47:23;99181.44;;;12.49;64.06
11648;BME280;5880;52.342;9.662;2023-03-13T05:49:49;99181.44;;;12.49;63.83
11648;BME280;5880;52.342;9.662;2023-03-13T05:52:14;99173.22;;;12.49;63.96
11648;BME280;5880;52.342;9.662;2023-03-13T05:54:40;99166.63;;;12.50;63.91
11648;BME280;5880;52.342;9.662;2023-03-13T05:57:06;99180.34;;;12.50;64.11
11648;BME280;5880;52.342;9.662;2023-03-13T05:59:34;99164.19;;;12.49;64.00
11648;BME280;5880;52.342;9.662;2023-03-13T06:01:59;99167.47;;;12.51;64.09
11648;BME280;5880;52.342;9.662;2023-03-13T06:04:25;99155.94;;;12.54;64.20
11648;BME280;5880;52.342;9.662;2023-03-13T06:06:51;99159.22;;;12.56;64.17
11648;BME280;5880;52.342;9.662;2023-03-13T06:09:16;99149.88;;;12.57;64.43
11648;BME280;5880;52.342;9.662;2023-03-13T06:11:42;99164.13;;;12.59;64.35
11648;BME280;5880;52.342;9.662;2023-03-13T06:14:07;99170.16;;;12.61;64.21
11648;BME280;5880;52.342;9.662;2023-03-13T06:16:33;99161.13;;;12.60;64.35
11648;BME280;5880;52.342;9.662;2023-03-13T06:18:59;99165.78;;;12.60;64.17
11648;BME280;5880;52.342;9.662;2023-03-13T06:21:25;99161.66;;;12.62;64.43
11648;BME280;5880;52.342;9.662;2023-03-13T06:23:50;99144.41;;;12.62;64.32
11648;BME280;5880;52.342;9.662;2023-03-13T06:26:16;99152.63;;;12.62;64.30
11648;BME280;5880;52.342;9.662;2023-03-13T06:28:42;99136.19;;;12.62;64.38
11648;BME280;5880;52.342;9.662;2023-03-13T06:31:09;99144.09;;;12.63;64.33
11648;BME280;5880;52.342;9.662;2023-03-13T06:33:34;99135.06;;;12.63;64.52
11648;BME280;5880;52.342;9.662;2023-03-13T06:36:02;99140.00;;;12.61;64.49
11648;BME280;5880;52.342;9.662;2023-03-13T06:38:29;99133.41;;;12.67;64.61
11648;BME280;5880;52.342;9.662;2023-03-13T06:40:55;99126.81;;;12.68;64.73
11648;BME280;5880;52.342;9.662;2023-03-13T06:43:21;99132.56;;;12.72;64.57
11648;BME280;5880;52.342;9.662;2023-03-13T06:45:47;99129.25;;;12.75;64.51
11648;BME280;5880;52.342;9.662;2023-03-13T06:48:13;99128.69;;;12.78;64.81
11648;BME280;5880;52.342;9.662;2023-03-13T06:50:40;99122.91;;;12.79;65.00
11648;BME280;5880;52.342;9.662;2023-03-13T06:53:05;99122.34;;;12.82;64.79
11648;BME280;5880;52.342;9.662;2023-03-13T06:55:32;99120.69;;;12.86;64.78
11648;BME280;5880;52.342;9.662;2023-03-13T06:57:57;99119.56;;;12.87;65.01
11648;BME280;5880;52.342;9.662;2023-03-13T07:00:23;99103.66;;;12.89;64.90
11648;BME280;5880;52.342;9.662;2023-03-13T07:02:50;99102.25;;;12.92;64.74
11648;BME280;5880;52.342;9.662;2023-03-13T07:05:16;99113.50;;;12.96;64.75
11648;BME280;5880;52.342;9.662;2023-03-13T07:07:42;99103.66;;;12.95;64.86
11648;BME280;5880;52.342;9.662;2023-03-13T07:10:10;99117.00;;;13.01;64.81
11648;BME280;5880;52.342;9.662;2023-03-13T07:12:36;99119.47;;;13.03;64.82
11648;BME280;5880;52.342;9.662;2023-03-13T07:15:04;99120.56;;;13.07;65.04
11648;BME280;5880;52.342;9.662;2023-03-13T07:17:29;99118.34;;;13.09;65.06
11648;BME280;5880;52.342;9.662;2023-03-13T07:19:55;99115.56;;;13.14;65.15
11648;BME280;5880;52.342;9.662;2023-03-13T07:22:21;99109.78;;;13.16;65.41
11648;BME280;5880;52.342;9.662;2023-03-13T07:24:47;99119.88;;;13.25;65.71
11648;BME280;5880;52.342;9.662;2023-03-13T07:27:13;99114.38;;;13.30;65.72
11648;BME280;5880;52.342;9.662;2023-03-13T07:29:38;99113.19;;;13.37;65.78
11648;BME280;5880;52.342;9.662;2023-03-13T07:32:05;99098.34;;;13.43;66.17
11648;BME280;5880;52.342;9.662;2023-03-13T07:34:30;99089.50;;;13.51;66.13
11648;BME280;5880;52.342;9.662;2023-03-13T07:36:56;99106.44;;;13.58;66.26
11648;BME280;5880;52.342;9.662;2023-03-13T07:39:22;99112.41;;;13.65;66.13
11648;BME280;5880;52.342;9.662;2023-03-13T07:41:47;99108.22;;;13.73;66.26
11648;BME280;5880;52.342;9.662;2023-03-13T07:44:13;99113.06;;;13.81;66.31
11648;BME280;5880;52.342;9.662;2023-03-13T07:46:38;99101.75;;;13.88;66.21
11648;BME280;5880;52.342;9.662;2023-03-13T07:49:04;99108.81;;;13.94;66.24
11648;BME280;5880;52.342;9.662;2023-03-13T07:51:30;99117.53;;;14.01;66.37
11648;BME280;5880;52.342;9.662;2023-03-13T07:53:55;99125.72;;;14.06;66.30
11648;BME280;5880;52.342;9.662;2023-03-13T07:56:22;99128.94;;;14.13;66.40
11648;BME280;5880;52.342;9.662;2023-03-13T07:58:49;99131.06;;;14.22;66.54
11648;BME280;5880;52.342;9.662;2023-03-13T08:01:22;99125.22;;;14.28;66.67
11648;BME280;5880;52.342;9.662;2023-03-13T08:03:48;99130.09;;;14.31;66.67
11648;BME280;5880;52.342;9.662;2023-03-13T08:06:18;99122.56;;;14.42;66.75
11648;BME280;5880;52.342;9.662;2023-03-13T08:08:45;99115.88;;;14.48;66.73
11648;BME280;5880;52.342;9.662;2023-03-13T08:11:15;99127.88;;;14.57;66.78
11648;BME280;5880;52.342;9.662;2023-03-13T08:13:42;99123.44;;;14.62;66.61
11648;BME280;5880;52.342;9.662;2023-03-13T08:16:18;99124.94;;;14.73;66.57
11648;BME280;5880;52.342;9.662;2023-03-13T08:18:47;99121.88;;;14.74;66.56
11648;BME280;5880;52.342;9.662;2023-03-13T08:21:17;99120.91;;;14.84;66.56
11648;BME280;5880;52.342;9.662;2023-03-13T08:23:43;99120.00;;;14.89;66.32
11648;BME280;5880;52.342;9.662;2023-03-13T08:26:18;99105.91;;;14.95;66.52
11648;BME280;5880;52.342;9.662;2023-03-13T08:28:46;99097.88;;;14.99;66.70
11648;BME280;5880;52.342;9.662;2023-03-13T08:31:22;99103.53;;;15.08;66.64
11648;BME280;5880;52.342;9.662;2023-03-13T08:33:49;99090.50;;;15.13;66.53
11648;BME280;5880;52.342;9.662;2023-03-13T08:36:22;99083.81;;;15.19;66.48
11648;BME280;5880;52.342;9.662;2023-03-13T08:38:51;99085.66;;;15.24;66.59
11648;BME280;5880;52.342;9.662;2023-03-13T08:41:23;99092.69;;;15.30;66.52
11648;BME280;5880;52.342;9.662;2023-03-13T08:43:52;99085.47;;;15.34;66.30
11648;BME280;5880;52.342;9.662;2023-03-13T08:46:18;99098.63;;;15.37;66.25
11648;BME280;5880;52.342;9.662;2023-03-13T08:48:44;99087.53;;;15.43;66.15
11648;BME280;5880;52.342;9.662;2023-03-13T08:51:13;99086.63;;;15.47;66.22
11648;BME280;5880;52.342;9.662;2023-03-13T08:53:41;99081.06;;;15.52;66.08
11648;BME280;5880;52.342;9.662;2023-03-13T08:56:10;99081.25;;;15.56;66.14
11648;BME280;5880;52.342;9.662;2023-03-13T08:58:36;99076.78;;;15.60;66.14
11648;BME280;5880;52.342;9.662;2023-03-13T09:01:09;99084.94;;;15.65;65.88
11648;BME280;5880;52.342;9.662;2023-03-13T09:03:35;99081.56;;;15.68;65.88
11648;BME280;5880;52.342;9.662;2023-03-13T09:06:01;99077.13;;;15.72;65.72
11648;BME280;5880;52.342;9.662;2023-03-13T09:08:29;99061.13;;;15.74;65.99
11648;BME280;5880;52.342;9.662;2023-03-13T09:10:57;99062.66;;;15.80;65.89
11648;BME280;5880;52.342;9.662;2023-03-13T09:13:24;99068.88;;;15.86;65.87
11648;BME280;5880;52.342;9.662;2023-03-13T09:16:05;99070.91;;;15.94;65.72
11648;BME280;5880;52.342;9.662;2023-03-13T09:18:32;99055.75;;;15.97;65.79
11648;BME280;5880;52.342;9.662;2023-03-13T09:20:59;99057.75;;;16.05;65.60
11648;BME280;5880;52.342;9.662;2023-03-13T09:23:25;99062.16;;;16.06;65.69
11648;BME280;5880;52.342;9.662;2023-03-13T09:25:56;99064.69;;;16.16;65.53
11648;BME280;5880;52.342;9.662;2023-03-13T09:28:24;99057.97;;;16.22;65.52
11648;BME280;5880;52.342;9.662;2023-03-13T09:30:51;99055.91;;;16.28;65.52
11648;BME280;5880;52.342;9.662;2023-03-13T09:33:19;99061.31;;;16.33;65.36
11648;BME280;5880;52.342;9.662;2023-03-13T09:35:46;99069.47;;;16.38;65.16
11648;BME280;5880;52.342;9.662;2023-03-13T09:38:21;99050.16;;;16.38;65.15
11648;BME280;5880;52.342;9.662;2023-03-13T09:40:49;99051.41;;;16.46;65.14
11648;BME280;5880;52.342;9.662;2023-03-13T09:43:48;99051.78;;;16.53;65.00
11648;BME280;5880;52.342;9.662;2023-03-13T09:49:14;99042.25;;;16.59;64.65
11648;BME280;5880;52.342;9.662;2023-03-13T09:51:45;99046.03;;;16.63;64.87
11648;BME280;5880;52.342;9.662;2023-03-13T09:54:27;99032.63;;;16.71;64.83
11648;BME280;5880;52.342;9.662;2023-03-13T09:57:16;99046.63;;;16.74;64.91
11648;BME280;5880;52.342;9.662;2023-03-13T09:59:52;99042.44;;;16.77;64.94
11648;BME280;5880;52.342;9.662;2023-03-13T10:02:34;99042.03;;;16.83;64.75
11648;BME280;5880;52.342;9.662;2023-03-13T10:05:23;99045.78;;;16.87;64.37
11648;BME280;5880;52.342;9.662;2023-03-13T10:07:59;99045.47;;;16.89;64.42
11648;BME280;5880;52.342;9.662;2023-03-13T10:10:52;99038.50;;;16.92;64.36
11648;BME280;5880;52.342;9.662;2023-03-13T10:16:27;99060.88;;;16.90;64.11
11648;BME280;5880;52.342;9.662;2023-03-13T10:18:57;99047.59;;;16.92;64.01
11648;BME280;5880;52.342;9.662;2023-03-13T10:21:33;99047.09;;;16.90;63.78
11648;BME280;5880;52.342;9.662;2023-03-13T10:26:46;99056.50;;;16.89;64.04
11648;BME280;5880;52.342;9.662;2023-03-13T10:29:24;99054.78;;;16.93;63.87
11648;BME280;5880;52.342;9.662;2023-03-13T10:32:06;99052.53;;;16.95;63.92
11648;BME280;5880;52.342;9.662;2023-03-13T10:34:58;99042.28;;;16.96;64.07
11648;BME280;5880;52.342;9.662;2023-03-13T10:37:41;99053.00;;;16.97;64.19
11648;BME280;5880;52.342;9.662;2023-03-13T10:40:24;99035.97;;;16.95;64.34
11648;BME280;5880;52.342;9.662;2023-03-13T10:42:59;99025.31;;;17.02;64.55
11648;BME280;5880;52.342;9.662;2023-03-13T10:45:31;99024.84;;;17.09;64.96
11648;BME280;5880;52.342;9.662;2023-03-13T10:48:03;99020.69;;;17.20;64.65
11648;BME280;5880;52.342;9.662;2023-03-13T10:50:35;99013.63;;;17.28;64.91
11648;BME280;5880;52.342;9.662;2023-03-13T10:55:51;99003.81;;;17.53;65.21
11648;BME280;5880;52.342;9.662;2023-03-13T10:58:34;99000.97;;;17.67;65.09
11648;BME280;5880;52.342;9.662;2023-03-13T11:01:25;99001.69;;;17.81;64.69
11648;BME280;5880;52.342;9.662;2023-03-13T11:03:55;98982.06;;;17.91;64.82
11648;BME280;5880;52.342;9.662;2023-03-13T11:06:30;99002.41;;;18.04;64.18
11648;BME280;5880;52.342;9.662;2023-03-13T11:09:19;98996.91;;;18.13;64.14
11648;BME280;5880;52.342;9.662;2023-03-13T11:12:11;99000.34;;;18.19;63.86
11648;BME280;5880;52.342;9.662;2023-03-13T11:14:39;99004.91;;;18.23;64.05
11648;BME280;5880;52.342;9.662;2023-03-13T11:17:31;98996.63;;;18.32;64.23
11648;BME280;5880;52.342;9.662;2023-03-13T11:20:24;98979.22;;;18.40;64.11
11648;BME280;5880;52.342;9.662;2023-03-13T11:23:08;98990.28;;;18.49;64.05
11648;BME280;5880;52.342;9.662;2023-03-13T11:31:18;98945.38;;;18.69;63.46
11648;BME280;5880;52.342;9.662;2023-03-13T11:34:10;98950.28;;;18.81;63.57
11648;BME280;5880;52.342;9.662;2023-03-13T11:37:00;98953.19;;;18.93;63.87
11648;BME280;5880;52.342;9.662;2023-03-13T11:42:44;98933.13;;;19.14;63.00
11648;BME280;5880;52.342;9.662;2023-03-13T11:51:23;98928.19;;;19.28;62.53
11648;BME280;5880;52.342;9.662;2023-03-13T11:54:16;98910.88;;;19.31;62.08
11648;BME280;5880;52.342;9.662;2023-03-13T11:57:24;98915.63;;;19.31;61.59
11648;BME280;5880;52.342;9.662;2023-03-13T12:00:13;98914.97;;;19.34;61.64
11648;BME280;5880;52.342;9.662;2023-03-13T12:02:49;98925.53;;;19.40;60.93
11648;BME280;5880;52.342;9.662;2023-03-13T12:05:19;98914.28;;;19.46;60.84
11648;BME280;5880;52.342;9.662;2023-03-13T12:08:02;98914.41;;;19.49;60.97
11648;BME280;5880;52.342;9.662;2023-03-13T12:13:26;98903.94;;;19.55;59.70
11648;BME280;5880;52.342;9.662;2023-03-13T12:16:02;98901.16;;;19.55;59.83
11648;BME280;5880;52.342;9.662;2023-03-13T12:18:38;98913.41;;;19.54;59.68
11648;BME280;5880;52.342;9.662;2023-03-13T12:21:36;98908.03;;;19.57;59.73
11648;BME280;5880;52.342;9.662;2023-03-13T12:24:52;98892.84;;;19.55;59.62
11648;BME280;5880;52.342;9.662;2023-03-13T12:27:55;98901.81;;;19.60;59.40
11648;BME280;5880;52.342;9.662;2023-03-13T12:30:45;98899.66;;;19.66;59.63
11648;BME280;5880;52.342;9.662;2023-03-13T12:36:34;98875.19;;;19.77;58.94
11648;BME280;5880;52.342;9.662;2023-03-13T12:39:29;98865.84;;;19.81;58.74
11648;BME280;5880;52.342;9.662;2023-03-13T12:42:27;98861.28;;;19.86;59.14
11648;BME280;5880;52.342;9.662;2023-03-13T12:44:58;98862.06;;;19.86;59.40
11648;BME280;5880;52.342;9.662;2023-03-13T12:47:50;98850.47;;;19.93;58.95
11648;BME280;5880;52.342;9.662;2023-03-13T12:50:46;98863.63;;;19.96;58.69
11648;BME280;5880;52.342;9.662;2023-03-13T12:53:47;98856.00;;;19.93;57.97
11648;BME280;5880;52.342;9.662;2023-03-13T12:56:44;98870.19;;;19.91;57.94
11648;BME280;5880;52.342;9.662;2023-03-13T12:59:40;98863.84;;;19.91;58.16
11648;BME280;5880;52.342;9.662;2023-03-13T13:02:23;98852.06;;;19.94;58.44
11648;BME280;5880;52.342;9.662;2023-03-13T13:04:51;98842.13;;;19.93;57.95
11648;BME280;5880;52.342;9.662;2023-03-13T13:07:36;98845.50;;;19.98;58.36
11648;BME280;5880;52.342;9.662;2023-03-13T13:12:35;98835.38;;;20.02;58.03
11648;BME280;5880;52.342;9.662;2023-03-13T13:23:46;98812.47;;;20.27;58.42
11648;BME280;5880;52.342;9.662;2023-03-13T13:28:56;98810.44;;;20.36;57.56
11648;BME280;5880;52.342;9.662;2023-03-13T13:36:58;98783.34;;;20.54;57.00
11648;BME280;5880;52.342;9.662;2023-03-13T13:39:44;98783.94;;;20.59;57.04
11648;BME280;5880;52.342;9.662;2023-03-13T13:47:43;98760.84;;;20.68;55.96
11648;BME280;5880;52.342;9.662;2023-03-13T13:50:27;98773.22;;;20.70;55.30
11648;BME280;5880;52.342;9.662;2023-03-13T13:53:29;98757.72;;;20.69;55.90
11648;BME280;5880;52.342;9.662;2023-03-13T13:55:55;98752.63;;;20.71;55.48
11648;BME280;5880;52.342;9.662;2023-03-13T13:58:29;98760.38;;;20.78;55.46
11648;BME280;5880;52.342;9.662;2023-03-13T14:01:05;98751.34;;;20.81;55.61
11648;BME280;5880;52.342;9.662;2023-03-13T14:03:39;98748.25;;;20.82;55.11
11648;BME280;5880;52.342;9.662;2023-03-13T14:06:27;98755.78;;;20.82;54.95
11648;BME280;5880;52.342;9.662;2023-03-13T14:11:46;98762.22;;;20.86;54.42
11648;BME280;5880;52.342;9.662;2023-03-13T14:14:20;98766.31;;;20.89;53.97
11648;BME280;5880;52.342;9.662;2023-03-13T14:16:49;98763.88;;;20.87;53.42
11648;BME280;5880;52.342;9.662;2023-03-13T14:19:41;98767.34;;;20.84;53.74
11648;BME280;5880;52.342;9.662;2023-03-13T14:22:11;98754.59;;;20.83;53.36
11648;BME280;5880;52.342;9.662;2023-03-13T14:24:39;98756.09;;;20.80;53.31
11648;BME280;5880;52.342;9.662;2023-03-13T14:27:16;98752.88;;;20.78;53.43
11648;BME280;5880;52.342;9.662;2023-03-13T14:30:06;98753.22;;;20.77;53.17
11648;BME280;5880;52.342;9.662;2023-03-13T14:32:33;98757.47;;;20.74;53.43
11648;BME280;5880;52.342;9.662;2023-03-13T14:35:00;98751.13;;;20.74;53.64